createdAt,value
2019-04-05T00:01:26.040Z,98177.00
2019-04-05T00:03:56.638Z,98183.00
2019-04-05T00:06:27.385Z,98181.00
2019-04-05T00:08:57.968Z,98179.00
2019-04-05T00:11:28.754Z,98185.00
2019-04-05T00:13:59.329Z,98187.00
2019-04-05T00:16:30.004Z,98182.00
2019-04-05T00:19:00.638Z,98176.00
2019-04-05T00:21:31.267Z,98179.00
2019-04-05T00:24:01.852Z,98183.00
2019-04-05T00:26:32.455Z,98190.00
2019-04-05T00:29:03.041Z,98199.00
2019-04-05T00:31:33.631Z,98190.00
2019-04-05T00:34:04.223Z,98188.00
2019-04-05T00:36:34.818Z,98197.00
2019-04-05T00:39:08.120Z,98196.00
2019-04-05T00:41:39.664Z,98196.00
2019-04-05T00:44:10.223Z,98206.00
2019-04-05T00:46:40.801Z,98205.00
2019-04-05T00:49:11.407Z,98203.00
2019-04-05T00:51:42.012Z,98212.00
2019-04-05T00:54:12.592Z,98210.00
2019-04-05T00:56:44.396Z,98216.00
2019-04-05T00:59:16.434Z,98225.00
2019-04-05T01:01:47.092Z,98232.00
2019-04-05T01:04:18.811Z,98235.00
2019-04-05T01:06:49.431Z,98235.00
2019-04-05T01:09:20.019Z,98241.00
2019-04-05T01:11:50.820Z,98250.00
2019-04-05T01:14:22.621Z,98254.00
2019-04-05T01:16:53.325Z,98258.00
2019-04-05T01:19:27.719Z,98250.00
2019-04-05T01:21:59.814Z,98260.00
2019-04-05T01:24:30.712Z,98266.00
2019-04-05T01:27:01.728Z,98267.00
2019-04-05T01:29:33.344Z,98266.00
2019-04-05T01:32:04.062Z,98272.00
2019-04-05T01:34:34.649Z,98274.00
2019-04-05T01:37:08.135Z,98265.00
2019-04-05T01:39:38.749Z,98264.00
2019-04-05T01:42:09.457Z,98278.00
2019-04-05T01:44:40.753Z,98287.00
2019-04-05T01:47:11.351Z,98285.00
2019-04-05T01:49:43.733Z,98285.00
2019-04-05T01:52:14.830Z,98288.00
2019-04-05T01:54:46.884Z,98289.00
2019-04-05T01:57:17.531Z,98296.00
2019-04-05T01:59:49.899Z,98293.00
2019-04-05T02:02:20.513Z,98299.00
2019-04-05T02:04:52.947Z,98296.00
2019-04-05T02:07:23.749Z,98296.00
2019-04-05T02:09:56.433Z,98295.00
2019-04-05T02:12:27.056Z,98287.00
2019-04-05T02:14:57.752Z,98295.00
2019-04-05T02:17:28.467Z,98297.00
2019-04-05T02:19:59.051Z,98296.00
2019-04-05T02:22:29.750Z,98295.00
2019-04-05T02:25:02.422Z,98302.00
2019-04-05T02:27:33.073Z,98291.00
2019-04-05T02:30:05.160Z,98287.00
2019-04-05T02:32:35.909Z,98284.00
2019-04-05T02:35:08.159Z,98285.00
2019-04-05T02:37:40.009Z,98283.00
2019-04-05T02:40:14.464Z,98290.00
2019-04-05T02:42:49.942Z,98291.00
2019-04-05T02:45:23.103Z,98298.00
2019-04-05T02:47:59.319Z,98297.00
2019-04-05T02:50:34.686Z,98301.00
2019-04-05T02:53:09.323Z,98305.00
2019-04-05T02:55:43.243Z,98299.00
2019-04-05T02:58:15.763Z,98306.00
2019-04-05T03:00:47.967Z,98298.00
2019-04-05T03:03:18.840Z,98303.00
2019-04-05T03:05:49.819Z,98302.00
2019-04-05T03:08:21.887Z,98287.00
2019-04-05T03:11:05.966Z,98288.00
2019-04-05T03:13:49.474Z,98288.00
2019-04-05T03:16:40.820Z,98288.00
2019-04-05T03:19:33.902Z,98288.00
2019-04-05T03:22:09.152Z,98282.00
2019-04-05T03:24:44.305Z,98287.00
2019-04-05T03:27:27.476Z,98300.00
2019-04-05T03:30:01.084Z,98307.00
2019-04-05T03:32:33.569Z,98317.00
2019-04-05T03:35:04.574Z,98324.00
2019-04-05T03:37:36.681Z,98324.00
2019-04-05T03:40:09.199Z,98336.00
2019-04-05T03:42:40.418Z,98335.00
2019-04-05T03:45:11.066Z,98331.00
2019-04-05T03:47:41.902Z,98334.00
2019-04-05T03:50:12.868Z,98338.00
2019-04-05T03:52:44.322Z,98348.00
2019-04-05T03:55:15.071Z,98342.00
2019-04-05T03:57:47.264Z,98346.00
2019-04-05T04:00:19.287Z,98356.00
2019-04-05T04:02:50.077Z,98359.00
2019-04-05T04:05:21.786Z,98367.00
2019-04-05T04:07:54.078Z,98364.00
2019-04-05T04:10:28.115Z,98360.00
2019-04-05T04:12:58.913Z,98363.00
2019-04-05T04:15:30.928Z,98365.00
2019-04-05T04:18:01.855Z,98369.00
2019-04-05T04:20:47.709Z,98363.00
2019-04-05T04:23:19.458Z,98377.00
2019-04-05T04:25:51.921Z,98378.00
2019-04-05T04:28:23.070Z,98365.00
2019-04-05T04:30:54.449Z,98373.00
2019-04-05T04:33:26.803Z,98384.00
2019-04-05T04:36:04.375Z,98381.00
2019-04-05T04:38:35.151Z,98381.00
2019-04-05T04:41:05.916Z,98390.00
2019-04-05T04:43:37.759Z,98386.00
2019-04-05T04:46:10.665Z,98387.00
2019-04-05T04:48:42.600Z,98398.00
2019-04-05T04:51:14.372Z,98402.00
2019-04-05T04:53:45.652Z,98405.00
2019-04-05T04:56:16.675Z,98409.00
2019-04-05T04:58:47.742Z,98412.00
2019-04-05T05:01:18.829Z,98409.00
2019-04-05T05:03:49.988Z,98409.00
2019-04-05T05:06:20.863Z,98410.00
2019-04-05T05:08:51.564Z,98401.00
2019-04-05T05:11:23.873Z,98402.00
2019-04-05T05:13:56.101Z,98400.00
2019-04-05T05:16:26.890Z,98403.00
2019-04-05T05:18:57.754Z,98400.00
2019-04-05T05:21:28.553Z,98406.00
2019-04-05T05:23:59.169Z,98412.00
2019-04-05T05:26:30.262Z,98421.00
2019-04-05T05:29:01.222Z,98419.00
2019-04-05T05:31:32.427Z,98425.00
2019-04-05T05:34:05.115Z,98424.00
2019-04-05T05:36:36.512Z,98423.00
2019-04-05T05:39:09.517Z,98429.00
2019-04-05T05:41:40.108Z,98429.00
2019-04-05T05:44:12.116Z,98437.00
2019-04-05T05:46:45.480Z,98434.00
2019-04-05T05:49:17.202Z,98430.00
2019-04-05T05:51:48.815Z,98432.00
2019-04-05T05:54:19.382Z,98437.00
2019-04-05T05:56:50.038Z,98445.00
2019-04-05T05:59:20.589Z,98438.00
2019-04-05T06:01:52.679Z,98445.00
2019-04-05T06:04:23.275Z,98444.00
2019-04-05T06:06:53.847Z,98450.00
2019-04-05T06:09:24.450Z,98442.00
2019-04-05T06:11:55.102Z,98441.00
2019-04-05T06:14:27.499Z,98443.00
2019-04-05T06:16:58.127Z,98448.00
2019-04-05T06:19:28.851Z,98449.00
2019-04-05T06:21:59.533Z,98454.00
2019-04-05T06:24:30.184Z,98457.00
2019-04-05T06:27:02.802Z,98447.00
2019-04-05T06:29:34.559Z,98454.00
2019-04-05T06:32:05.209Z,98456.00
2019-04-05T06:34:35.906Z,98462.00
2019-04-05T06:37:06.639Z,98469.00
2019-04-05T06:39:37.241Z,98477.00
2019-04-05T06:42:07.825Z,98466.00
2019-04-05T06:44:39.528Z,98472.00
2019-04-05T06:47:13.049Z,98473.00
2019-04-05T06:49:43.619Z,98474.00
2019-04-05T06:52:14.178Z,98480.00
2019-04-05T06:54:44.778Z,98475.00
2019-04-05T06:57:17.298Z,98475.00
2019-04-05T06:59:49.113Z,98487.00
2019-04-05T07:02:19.731Z,98485.00
2019-04-05T07:04:50.421Z,98489.00
2019-04-05T07:07:20.988Z,98491.00
2019-04-05T07:09:52.804Z,98493.00
2019-04-05T07:12:25.204Z,98491.00
2019-04-05T07:14:56.373Z,98487.00
2019-04-05T07:17:27.216Z,98496.00
2019-04-05T07:19:57.799Z,98497.00
2019-04-05T07:22:38.529Z,98488.00
2019-04-05T07:25:00.785Z,98503.00
2019-04-05T07:27:31.330Z,98498.00
2019-04-05T07:30:02.291Z,98498.00
2019-04-05T07:32:32.921Z,98506.00
2019-04-05T07:35:03.699Z,98507.00
2019-04-05T07:37:35.485Z,98508.00
2019-04-05T07:40:07.915Z,98510.00
2019-04-05T07:42:38.558Z,98509.00
2019-04-05T07:45:09.706Z,98525.00
2019-04-05T07:47:40.356Z,98515.00
2019-04-05T07:50:11.522Z,98518.00
2019-04-05T07:52:42.195Z,98526.00
2019-04-05T07:55:14.180Z,98527.00
2019-04-05T07:57:45.849Z,98526.00
2019-04-05T08:00:47.416Z,98528.00
2019-04-05T08:03:18.558Z,98537.00
2019-04-05T08:05:50.611Z,98529.00
2019-04-05T08:09:08.401Z,98534.00
2019-04-05T08:11:40.957Z,98530.00
2019-04-05T08:14:13.105Z,98528.00
2019-04-05T08:16:43.958Z,98537.00
2019-04-05T08:19:14.533Z,98539.00
2019-04-05T08:21:45.230Z,98543.00
2019-04-05T08:24:15.794Z,98530.00
2019-04-05T08:26:46.469Z,98537.00
2019-04-05T08:29:18.548Z,98536.00
2019-04-05T08:31:49.169Z,98538.00
2019-04-05T08:34:19.927Z,98538.00
2019-04-05T08:36:51.711Z,98535.00
2019-04-05T08:39:22.311Z,98542.00
2019-04-05T08:41:53.930Z,98544.00
2019-04-05T08:44:24.552Z,98530.00
2019-04-05T08:46:55.239Z,98543.00
2019-04-05T08:49:25.829Z,98539.00
2019-04-05T08:51:56.428Z,98538.00
2019-04-05T08:54:32.694Z,98538.00
2019-04-05T08:56:59.297Z,98540.00
2019-04-05T08:59:30.959Z,98539.00
2019-04-05T09:02:03.003Z,98541.00
2019-04-05T09:04:33.562Z,98529.00
2019-04-05T09:07:04.191Z,98535.00
2019-04-05T09:09:34.757Z,98531.00
2019-04-05T09:12:05.385Z,98524.00
2019-04-05T09:14:37.158Z,98539.00
2019-04-05T09:17:07.775Z,98526.00
2019-04-05T09:19:38.447Z,98522.00
2019-04-05T09:22:09.041Z,98528.00
2019-04-05T09:24:39.715Z,98541.00
2019-04-05T09:27:10.410Z,98529.00
2019-04-05T09:29:40.991Z,98528.00
2019-04-05T09:32:11.594Z,98529.00
2019-04-05T09:34:42.268Z,98517.00
2019-04-05T09:37:12.877Z,98513.00
2019-04-05T09:39:43.669Z,98522.00
2019-04-05T09:42:15.396Z,98524.00
2019-04-05T09:44:46.052Z,98522.00
2019-04-05T09:47:16.659Z,98522.00
2019-04-05T09:49:47.339Z,98519.00
2019-04-05T09:52:18.064Z,98521.00
2019-04-05T09:54:48.653Z,98528.00
2019-04-05T09:57:19.229Z,98537.00
2019-04-05T09:59:51.357Z,98535.00
2019-04-05T10:02:21.957Z,98538.00
2019-04-05T10:04:52.520Z,98536.00
2019-04-05T10:07:23.225Z,98529.00
2019-04-05T10:09:53.906Z,98528.00
2019-04-05T10:12:24.526Z,98524.00
2019-04-05T10:14:55.205Z,98521.00
2019-04-05T10:17:27.258Z,98531.00
2019-04-05T10:19:57.921Z,98529.00
2019-04-05T10:22:28.555Z,98521.00
2019-04-05T10:24:59.100Z,98527.00
2019-04-05T10:27:29.757Z,98529.00
2019-04-05T10:30:00.611Z,98524.00
2019-04-05T10:32:31.185Z,98520.00
2019-04-05T10:35:03.100Z,98521.00
2019-04-05T10:37:33.651Z,98519.00
2019-04-05T10:40:06.324Z,98534.00
2019-04-05T10:42:38.481Z,98529.00
2019-04-05T10:45:11.388Z,98535.00
2019-04-05T10:47:42.462Z,98522.00
2019-04-05T10:50:15.415Z,98520.00
2019-04-05T10:52:46.015Z,98528.00
2019-04-05T10:55:17.578Z,98536.00
2019-04-05T10:57:48.548Z,98528.00
2019-04-05T11:00:21.555Z,98536.00
2019-04-05T11:02:52.140Z,98544.00
2019-04-05T11:05:24.519Z,98543.00
2019-04-05T11:07:56.647Z,98550.00
2019-04-05T11:10:27.206Z,98542.00
2019-04-05T11:12:59.638Z,98544.00
2019-04-05T11:15:31.001Z,98549.00
2019-04-05T11:18:04.680Z,98542.00
2019-04-05T11:20:35.408Z,98547.00
2019-04-05T11:23:06.028Z,98543.00
2019-04-05T11:25:36.634Z,98548.00
2019-04-05T11:28:07.276Z,98543.00
2019-04-05T11:30:59.363Z,98542.00
2019-04-05T11:33:30.061Z,98549.00
2019-04-05T11:36:00.935Z,98550.00
2019-04-05T11:38:32.063Z,98551.00
2019-04-05T11:41:04.235Z,98542.00
2019-04-05T11:43:37.548Z,98544.00
2019-04-05T11:46:08.206Z,98548.00
2019-04-05T11:48:41.328Z,98554.00
2019-04-05T11:51:12.176Z,98545.00
2019-04-05T11:53:42.886Z,98548.00
2019-04-05T11:56:17.495Z,98549.00
2019-04-05T11:58:49.175Z,98540.00
2019-04-05T12:01:41.436Z,98553.00
2019-04-05T12:04:12.154Z,98548.00
2019-04-05T12:06:44.516Z,98546.00
2019-04-05T12:09:15.142Z,98551.00
2019-04-05T12:11:46.984Z,98541.00
2019-04-05T12:14:29.551Z,98545.00
2019-04-05T12:16:49.921Z,98548.00
2019-04-05T12:19:20.520Z,98541.00
2019-04-05T12:21:52.696Z,98543.00
2019-04-05T12:24:23.387Z,98539.00
2019-04-05T12:26:54.068Z,98543.00
2019-04-05T12:29:26.594Z,98535.00
2019-04-05T12:31:59.689Z,98523.00
2019-04-05T12:34:32.860Z,98534.00
2019-04-05T12:37:03.521Z,98527.00
2019-04-05T12:39:37.103Z,98527.00
2019-04-05T12:42:11.927Z,98526.00
2019-04-05T12:44:44.996Z,98518.00
2019-04-05T12:47:15.869Z,98519.00
2019-04-05T12:49:46.890Z,98520.00
2019-04-05T12:52:22.967Z,98508.00
2019-04-05T12:54:54.721Z,98510.00
2019-04-05T12:57:23.555Z,98511.00
2019-04-05T12:59:56.555Z,98510.00
2019-04-05T13:02:33.342Z,98503.00
2019-04-05T13:04:59.957Z,98514.00
2019-04-05T13:07:34.917Z,98510.00
2019-04-05T13:10:05.316Z,98506.00
2019-04-05T13:12:36.054Z,98501.00
2019-04-05T13:15:13.877Z,98501.00
2019-04-05T13:17:40.704Z,98497.00
2019-04-05T13:20:12.019Z,98503.00
2019-04-05T13:22:42.672Z,98506.00
2019-04-05T13:25:13.325Z,98507.00
2019-04-05T13:27:43.940Z,98501.00
2019-04-05T13:30:18.308Z,98498.00
2019-04-05T13:32:48.117Z,98497.00
2019-04-05T13:35:18.856Z,98494.00
2019-04-05T13:37:49.575Z,98503.00
2019-04-05T13:40:20.381Z,98506.00
2019-04-05T13:42:52.115Z,98506.00
2019-04-05T13:45:22.955Z,98496.00
2019-04-05T13:47:53.748Z,98498.00
2019-04-05T13:50:24.523Z,98506.00
2019-04-05T13:52:55.217Z,98510.00
2019-04-05T13:55:25.810Z,98496.00
2019-04-05T13:57:56.395Z,98503.00
2019-04-05T14:00:27.157Z,98494.00
2019-04-05T14:02:57.769Z,98493.00
2019-04-05T14:05:29.550Z,98500.00
2019-04-05T14:08:09.829Z,98494.00
2019-04-05T14:10:33.761Z,98497.00
2019-04-05T14:13:04.538Z,98505.00
2019-04-05T14:15:35.332Z,98509.00
2019-04-05T14:18:05.949Z,98502.00
2019-04-05T14:20:36.534Z,98502.00
2019-04-05T14:23:08.602Z,98496.00
2019-04-05T14:25:59.971Z,98502.00
2019-04-05T14:28:32.382Z,98501.00
2019-04-05T14:31:04.062Z,98499.00
2019-04-05T14:33:34.817Z,98505.00
2019-04-05T14:36:05.603Z,98495.00
2019-04-05T14:38:36.217Z,98496.00
2019-04-05T14:41:07.124Z,98501.00
2019-04-05T14:43:38.012Z,98508.00
2019-04-05T14:46:08.693Z,98503.00
2019-04-05T14:48:39.961Z,98499.00
2019-04-05T14:51:12.432Z,98502.00
2019-04-05T14:53:43.028Z,98503.00
2019-04-05T14:56:14.866Z,98497.00
2019-04-05T14:58:45.554Z,98492.00
2019-04-05T15:01:17.645Z,98490.00
2019-04-05T15:03:50.211Z,98489.00
2019-04-05T15:06:20.921Z,98491.00
2019-04-05T15:08:52.310Z,98498.00
2019-04-05T15:11:23.310Z,98497.00
2019-04-05T15:13:56.605Z,98493.00
2019-04-05T15:16:27.283Z,98496.00
2019-04-05T15:18:57.933Z,98487.00
2019-04-05T15:21:28.606Z,98487.00
2019-04-05T15:23:59.247Z,98490.00
2019-04-05T15:26:29.892Z,98475.00
2019-04-05T15:29:00.489Z,98485.00
2019-04-05T15:31:32.081Z,98476.00
2019-04-05T15:34:02.775Z,98471.00
2019-04-05T15:36:33.401Z,98475.00
2019-04-05T15:39:05.861Z,98473.00
2019-04-05T15:41:37.747Z,98477.00
2019-04-05T15:44:08.312Z,98473.00
2019-04-05T15:46:38.908Z,98481.00
2019-04-05T15:49:09.611Z,98473.00
2019-04-05T15:51:41.704Z,98475.00
2019-04-05T15:54:12.300Z,98474.00
2019-04-05T15:56:42.928Z,98487.00
2019-04-05T15:59:13.532Z,98477.00
2019-04-05T16:01:45.245Z,98480.00
2019-04-05T16:04:16.911Z,98485.00
2019-04-05T16:06:47.724Z,98473.00
2019-04-05T16:09:18.765Z,98479.00
2019-04-05T16:11:49.495Z,98478.00
2019-04-05T16:14:21.824Z,98471.00
2019-04-05T16:16:53.799Z,98470.00
2019-04-05T16:19:24.968Z,98482.00
2019-04-05T16:21:55.901Z,98484.00
2019-04-05T16:24:26.691Z,98478.00
2019-04-05T16:26:57.674Z,98481.00
2019-04-05T16:29:28.350Z,98474.00
2019-04-05T16:32:00.855Z,98477.00
2019-04-05T16:34:33.339Z,98482.00
2019-04-05T16:37:07.813Z,98476.00
2019-04-05T16:39:39.661Z,98489.00
2019-04-05T16:42:10.513Z,98482.00
2019-04-05T16:44:41.560Z,98477.00
2019-04-05T16:47:12.316Z,98481.00
2019-04-05T16:49:44.691Z,98474.00
2019-04-05T16:52:15.306Z,98473.00
2019-04-05T16:54:47.851Z,98477.00
2019-04-05T16:57:18.487Z,98478.00
2019-04-05T16:59:50.900Z,98482.00
2019-04-05T17:02:21.791Z,98484.00
2019-04-05T17:04:52.452Z,98491.00
2019-04-05T17:07:24.633Z,98494.00
2019-04-05T17:09:55.415Z,98489.00
2019-04-05T17:12:26.138Z,98478.00
2019-04-05T17:14:56.731Z,98477.00
2019-04-05T17:17:27.364Z,98481.00
2019-04-05T17:19:58.003Z,98483.00
2019-04-05T17:22:28.858Z,98489.00
2019-04-05T17:24:59.464Z,98483.00
2019-04-05T17:27:30.017Z,98481.00
2019-04-05T17:30:00.643Z,98489.00
2019-04-05T17:32:31.365Z,98487.00
2019-04-05T17:35:02.007Z,98495.00
2019-04-05T17:37:32.616Z,98494.00
2019-04-05T17:40:03.504Z,98499.00
2019-04-05T17:42:34.933Z,98499.00
2019-04-05T17:45:06.874Z,98498.00
2019-04-05T17:47:37.451Z,98500.00
2019-04-05T17:50:10.702Z,98492.00
2019-04-05T17:52:41.147Z,98491.00
2019-04-05T17:55:11.785Z,98489.00
2019-04-05T17:57:42.456Z,98493.00
2019-04-05T18:00:18.415Z,98498.00
2019-04-05T18:02:49.480Z,98495.00
2019-04-05T18:05:20.104Z,98498.00
2019-04-05T18:07:50.820Z,98500.00
2019-04-05T18:10:21.544Z,98509.00
2019-04-05T18:12:52.104Z,98501.00
2019-04-05T18:15:22.754Z,98498.00
2019-04-05T18:17:53.334Z,98500.00
2019-04-05T18:20:23.958Z,98502.00
2019-04-05T18:22:54.667Z,98501.00
2019-04-05T18:25:25.303Z,98503.00
2019-04-05T18:27:55.896Z,98504.00
2019-04-05T18:30:26.673Z,98507.00
2019-04-05T18:32:57.392Z,98500.00
2019-04-05T18:35:28.083Z,98494.00
2019-04-05T18:38:00.215Z,98509.00
2019-04-05T18:40:39.921Z,98499.00
2019-04-05T18:43:06.117Z,98510.00
2019-04-05T18:45:36.716Z,98516.00
2019-04-05T18:48:09.180Z,98511.00
2019-04-05T18:50:41.320Z,98518.00
2019-04-05T18:53:13.771Z,98522.00
2019-04-05T18:55:44.410Z,98524.00
2019-04-05T18:58:16.165Z,98519.00
2019-04-05T19:00:46.795Z,98528.00
2019-04-05T19:03:17.463Z,98527.00
2019-04-05T19:05:48.151Z,98530.00
2019-04-05T19:08:18.740Z,98523.00
2019-04-05T19:10:49.476Z,98527.00
2019-04-05T19:13:20.170Z,98530.00
2019-04-05T19:15:50.794Z,98524.00
2019-04-05T19:18:21.571Z,98531.00
2019-04-05T19:20:52.330Z,98528.00
2019-04-05T19:23:22.907Z,98536.00
2019-04-05T19:25:53.573Z,98525.00
2019-04-05T19:28:24.143Z,98527.00
2019-04-05T19:48:41.659Z,98530.00
2019-04-05T19:51:12.323Z,98528.00
2019-04-05T19:53:43.101Z,98537.00
2019-04-05T19:56:13.867Z,98543.00
2019-04-05T19:58:44.438Z,98540.00
2019-04-05T20:01:15.303Z,98542.00
2019-04-05T20:03:47.342Z,98548.00
2019-04-05T20:06:18.011Z,98556.00
2019-04-05T20:08:50.469Z,98550.00
2019-04-05T20:11:21.183Z,98551.00
2019-04-05T20:13:51.763Z,98550.00
2019-04-05T20:16:22.551Z,98548.00
2019-04-05T20:18:53.237Z,98543.00
2019-04-05T20:21:23.845Z,98549.00
2019-04-05T20:23:54.489Z,98551.00
2019-04-05T20:26:26.681Z,98546.00
2019-04-05T20:28:58.311Z,98542.00
2019-04-05T20:31:30.006Z,98544.00
2019-04-05T20:34:00.732Z,98546.00
2019-04-05T20:36:31.492Z,98547.00
2019-04-05T20:39:02.097Z,98548.00
2019-04-05T20:41:32.770Z,98554.00
2019-04-05T20:44:03.384Z,98551.00
2019-04-05T20:46:33.981Z,98553.00
2019-04-05T20:49:05.987Z,98555.00
2019-04-05T20:51:36.704Z,98550.00
2019-04-05T20:54:07.506Z,98551.00
2019-04-05T20:56:38.293Z,98548.00
2019-04-05T20:59:09.025Z,98552.00
2019-04-05T21:01:39.744Z,98547.00
2019-04-05T21:04:10.340Z,98553.00
2019-04-05T21:06:41.035Z,98553.00
2019-04-05T21:09:11.947Z,98549.00
2019-04-05T21:11:42.535Z,98564.00
2019-04-05T21:14:13.265Z,98565.00
2019-04-05T21:16:44.039Z,98564.00
2019-04-05T21:19:14.656Z,98567.00
2019-04-05T21:21:46.741Z,98575.00
2019-04-05T21:24:17.564Z,98572.00
2019-04-05T21:26:48.161Z,98577.00
2019-04-05T21:29:18.927Z,98574.00
2019-04-05T21:31:49.551Z,98576.00
2019-04-05T21:34:20.195Z,98577.00
2019-04-05T21:36:51.035Z,98570.00
2019-04-05T21:39:21.654Z,98579.00
2019-04-05T21:41:52.262Z,98579.00
2019-04-05T21:44:22.947Z,98580.00
2019-04-05T21:46:53.582Z,98584.00
2019-04-05T21:49:24.317Z,98580.00
2019-04-05T21:51:55.937Z,98583.00
2019-04-05T21:54:26.637Z,98585.00
2019-04-05T21:56:57.420Z,98579.00
2019-04-05T21:59:28.123Z,98580.00
2019-04-05T22:02:00.167Z,98585.00
2019-04-05T22:04:30.787Z,98583.00
2019-04-05T22:07:01.456Z,98589.00
2019-04-05T22:09:33.470Z,98583.00
2019-04-05T22:12:10.614Z,98582.00
2019-04-05T22:14:41.405Z,98590.00
2019-04-05T22:17:12.007Z,98590.00
2019-04-05T22:19:42.652Z,98587.00
2019-04-05T22:22:13.294Z,98579.00
2019-04-05T22:24:45.111Z,98585.00
2019-04-05T22:27:16.828Z,98591.00
2019-04-05T22:29:48.950Z,98592.00
2019-04-05T22:32:19.852Z,98596.00
2019-04-05T22:34:51.554Z,98590.00
2019-04-05T22:37:22.147Z,98605.00
2019-04-05T22:39:52.875Z,98593.00
2019-04-05T22:42:23.494Z,98610.00
2019-04-05T22:44:55.591Z,98606.00
2019-04-05T22:47:27.187Z,98607.00
2019-04-05T22:49:57.812Z,98602.00
2019-04-05T22:52:28.416Z,98603.00
2019-04-05T22:55:10.087Z,98609.00
2019-04-05T22:57:31.512Z,98609.00
2019-04-05T23:00:02.249Z,98611.00
2019-04-05T23:02:32.948Z,98616.00
2019-04-05T23:05:05.292Z,98619.00
2019-04-05T23:07:37.098Z,98621.00
2019-04-05T23:10:08.856Z,98615.00
2019-04-05T23:12:39.615Z,98627.00
2019-04-05T23:15:10.556Z,98624.00
2019-04-05T23:17:41.193Z,98630.00
2019-04-05T23:20:12.929Z,98632.00
2019-04-05T23:22:45.127Z,98627.00
2019-04-05T23:25:21.785Z,98628.00
2019-04-05T23:27:48.204Z,98623.00
2019-04-05T23:30:20.444Z,98631.00
2019-04-05T23:32:51.116Z,98629.00
2019-04-05T23:35:23.632Z,98634.00
2019-04-05T23:37:54.166Z,98635.00
2019-04-05T23:40:25.882Z,98632.00
2019-04-05T23:42:56.515Z,98635.00
2019-04-05T23:45:27.083Z,98635.00
2019-04-05T23:47:57.792Z,98644.00
2019-04-05T23:50:29.889Z,98632.00
2019-04-05T23:53:00.520Z,98638.00
2019-04-05T23:55:33.518Z,98631.00
2019-04-05T23:58:03.575Z,98632.00
